Terminal Aerodrome Forecast
Issued by NWS

Home | Current Version | Previous Version | Graphics & Text | Print | Product List | Glossary On
Versions: 1 2 3 4 5 6 7 8 9 10 11 12 13 14 15
052
FTUS43 KBIS 220522
TAFJMS
TAF
KJMS 220522Z 2206/2306 31005KT P6SM SKC
     FM220900 25004KT P6SM FEW110 FEW250
     FM221600 29011KT P6SM FEW070 FEW200
     FM222000 30017G25KT P6SM FEW070 FEW200
     FM230200 29011KT P6SM SCT140=

USA.gov is the U.S. government's official web portal to all federal, state and local government web resources and services.